createdAt,value
2023-02-09T00:01:24.800Z,100.00
2023-02-09T00:03:51.958Z,100.00
2023-02-09T00:06:20.696Z,100.00
2023-02-09T00:08:47.551Z,100.00
2023-02-09T00:11:46.901Z,100.00
2023-02-09T00:14:16.573Z,100.00
2023-02-09T00:16:43.716Z,100.00
2023-02-09T00:19:12.020Z,100.00
2023-02-09T00:21:39.884Z,100.00
2023-02-09T00:24:07.538Z,100.00
2023-02-09T00:26:34.469Z,100.00
2023-02-09T00:29:00.981Z,100.00
2023-02-09T00:31:27.599Z,100.00
2023-02-09T00:33:54.341Z,100.00
2023-02-09T00:36:21.362Z,100.00
2023-02-09T00:38:47.868Z,100.00
2023-02-09T00:41:16.175Z,100.00
2023-02-09T00:43:43.041Z,100.00
2023-02-09T00:46:09.970Z,100.00
2023-02-09T00:48:36.537Z,100.00
2023-02-09T00:51:03.329Z,100.00
2023-02-09T00:53:29.844Z,100.00
2023-02-09T00:55:56.622Z,100.00
2023-02-09T00:58:23.101Z,100.00
2023-02-09T01:00:49.905Z,100.00
2023-02-09T01:03:16.436Z,100.00
2023-02-09T01:05:43.520Z,100.00
2023-02-09T01:08:11.646Z,100.00
2023-02-09T01:10:38.650Z,100.00
2023-02-09T01:13:05.804Z,100.00
2023-02-09T01:15:32.484Z,100.00
2023-02-09T01:17:59.658Z,100.00
2023-02-09T01:20:26.442Z,100.00
2023-02-09T01:22:52.898Z,100.00
2023-02-09T01:25:19.369Z,100.00
2023-02-09T01:27:46.231Z,100.00
2023-02-09T01:30:13.219Z,100.00
2023-02-09T01:32:39.655Z,100.00
2023-02-09T01:35:06.596Z,100.00
2023-02-09T01:37:34.514Z,100.00
2023-02-09T01:40:01.504Z,100.00
2023-02-09T01:42:28.084Z,100.00
2023-02-09T01:45:42.051Z,100.00
2023-02-09T01:48:09.200Z,100.00
2023-02-09T01:50:40.998Z,100.00
2023-02-09T01:53:08.232Z,100.00
2023-02-09T01:55:40.103Z,100.00
2023-02-09T01:58:11.961Z,100.00
2023-02-09T02:00:38.494Z,100.00
2023-02-09T02:03:09.977Z,100.00
2023-02-09T02:05:39.287Z,100.00
2023-02-09T02:08:21.289Z,100.00
2023-02-09T02:10:47.957Z,100.00
2023-02-09T02:13:14.522Z,100.00
2023-02-09T02:16:04.818Z,100.00
2023-02-09T02:18:49.643Z,100.00
2023-02-09T02:21:41.594Z,100.00
2023-02-09T02:24:42.082Z,100.00
2023-02-09T02:27:32.300Z,100.00
2023-02-09T02:30:17.030Z,100.00
2023-02-09T02:32:59.390Z,100.00
2023-02-09T02:35:40.968Z,100.00
2023-02-09T02:38:37.877Z,100.00
2023-02-09T02:41:26.277Z,100.00
2023-02-09T02:44:17.198Z,100.00
2023-02-09T02:46:51.944Z,100.00
2023-02-09T02:49:34.520Z,100.00
2023-02-09T02:52:04.857Z,100.00
2023-02-09T02:54:46.648Z,100.00
2023-02-09T02:57:17.954Z,100.00
2023-02-09T02:59:55.223Z,100.00
2023-02-09T03:02:26.285Z,100.00
2023-02-09T03:04:55.606Z,100.00
2023-02-09T03:07:22.114Z,100.00
2023-02-09T03:09:50.688Z,100.00
2023-02-09T03:12:40.156Z,100.00
2023-02-09T03:15:16.185Z,100.00
2023-02-09T03:17:52.216Z,100.00
2023-02-09T03:20:37.390Z,100.00
2023-02-09T03:23:16.442Z,100.00
2023-02-09T03:25:48.470Z,100.00
2023-02-09T03:28:23.737Z,100.00
2023-02-09T03:30:52.972Z,100.00
2023-02-09T03:33:26.779Z,100.00
2023-02-09T03:35:58.179Z,100.00
2023-02-09T03:38:25.135Z,100.00
2023-02-09T03:40:51.529Z,100.00
2023-02-09T03:43:17.954Z,100.00
2023-02-09T03:45:44.421Z,100.00
2023-02-09T03:48:10.885Z,100.00
2023-02-09T03:50:37.521Z,100.00
2023-02-09T03:53:08.284Z,100.00
2023-02-09T03:55:35.817Z,100.00
2023-02-09T03:58:02.254Z,100.00
2023-02-09T04:00:28.741Z,100.00
2023-02-09T04:02:56.350Z,100.00
2023-02-09T04:05:23.040Z,100.00
2023-02-09T04:07:49.779Z,100.00
2023-02-09T04:10:16.219Z,100.00
2023-02-09T04:12:42.646Z,100.00
2023-02-09T04:15:09.587Z,100.00
2023-02-09T04:17:36.010Z,100.00
2023-02-09T04:20:02.432Z,100.00
2023-02-09T04:22:28.876Z,100.00
2023-02-09T04:24:55.267Z,100.00
2023-02-09T04:27:21.903Z,100.00
2023-02-09T04:29:48.311Z,100.00
2023-02-09T04:32:20.704Z,100.00
2023-02-09T04:34:47.106Z,100.00
2023-02-09T04:37:13.503Z,100.00
2023-02-09T04:39:39.942Z,100.00
2023-02-09T04:42:06.361Z,100.00
2023-02-09T04:44:32.804Z,100.00
2023-02-09T04:46:59.221Z,100.00
2023-02-09T04:49:25.860Z,100.00
2023-02-09T04:51:52.307Z,100.00
2023-02-09T04:54:18.721Z,100.00
2023-02-09T04:56:45.110Z,100.00
2023-02-09T04:59:30.147Z,100.00
2023-02-09T05:01:56.579Z,100.00
2023-02-09T05:04:23.078Z,100.00
2023-02-09T05:06:49.498Z,100.00
2023-02-09T05:09:15.934Z,100.00
2023-02-09T05:11:42.342Z,100.00
2023-02-09T05:14:08.788Z,100.00
2023-02-09T05:16:36.013Z,100.00
2023-02-09T05:19:03.516Z,100.00
2023-02-09T05:21:29.925Z,100.00
2023-02-09T05:23:56.356Z,100.00
2023-02-09T05:26:22.791Z,100.00
2023-02-09T05:28:49.242Z,100.00
2023-02-09T05:31:16.532Z,100.00
2023-02-09T05:33:43.151Z,100.00
2023-02-09T05:36:09.948Z,100.00
2023-02-09T05:38:36.587Z,100.00
2023-02-09T05:41:08.923Z,100.00
2023-02-09T05:43:35.907Z,100.00
2023-02-09T05:46:03.296Z,100.00
2023-02-09T05:48:30.028Z,100.00
2023-02-09T05:51:01.529Z,100.00
2023-02-09T05:53:27.963Z,100.00
2023-02-09T05:55:54.352Z,100.00
2023-02-09T05:58:20.780Z,100.00
2023-02-09T06:00:47.449Z,100.00
2023-02-09T06:03:14.090Z,100.00
2023-02-09T06:05:40.666Z,100.00
2023-02-09T06:08:07.119Z,100.00
2023-02-09T06:10:33.590Z,100.00
2023-02-09T06:13:00.088Z,100.00
2023-02-09T06:15:26.514Z,100.00
2023-02-09T06:17:52.961Z,100.00
2023-02-09T06:20:19.533Z,100.00
2023-02-09T06:22:46.020Z,100.00
2023-02-09T06:25:12.624Z,100.00
2023-02-09T06:27:39.072Z,100.00
2023-02-09T06:30:06.923Z,100.00
2023-02-09T06:32:33.362Z,100.00
2023-02-09T06:34:59.766Z,100.00
2023-02-09T06:37:26.279Z,100.00
2023-02-09T06:39:52.794Z,100.00
2023-02-09T06:42:19.396Z,100.00
2023-02-09T06:44:45.882Z,100.00
2023-02-09T06:47:12.332Z,100.00
2023-02-09T06:49:38.799Z,100.00
2023-02-09T06:52:05.587Z,100.00
2023-02-09T06:54:32.202Z,100.00
2023-02-09T06:56:58.697Z,100.00
2023-02-09T06:59:25.259Z,100.00
2023-02-09T07:01:54.813Z,100.00
2023-02-09T07:04:21.803Z,100.00
2023-02-09T07:06:48.223Z,100.00
2023-02-09T07:09:14.692Z,100.00
2023-02-09T07:11:41.135Z,100.00
2023-02-09T07:14:07.578Z,100.00
2023-02-09T07:16:34.070Z,100.00
2023-02-09T07:19:01.134Z,100.00
2023-02-09T07:21:27.757Z,100.00
2023-02-09T07:23:54.327Z,100.00
2023-02-09T07:26:20.828Z,100.00
2023-02-09T07:28:48.108Z,100.00
2023-02-09T07:31:16.104Z,100.00
2023-02-09T07:33:42.931Z,100.00
2023-02-09T07:36:13.193Z,100.00
2023-02-09T07:38:40.610Z,100.00
2023-02-09T07:41:12.678Z,100.00
2023-02-09T07:43:39.099Z,100.00
2023-02-09T07:46:07.265Z,100.00
2023-02-09T07:48:34.589Z,100.00
2023-02-09T07:51:01.591Z,100.00
2023-02-09T07:53:28.702Z,100.00
2023-02-09T07:55:55.278Z,100.00
2023-02-09T07:58:22.002Z,100.00
2023-02-09T08:00:50.337Z,100.00
2023-02-09T08:03:19.665Z,100.00
2023-02-09T08:06:00.426Z,100.00
2023-02-09T08:08:26.928Z,100.00
2023-02-09T08:10:55.550Z,100.00
2023-02-09T08:13:23.215Z,100.00
2023-02-09T08:15:58.257Z,100.00
2023-02-09T08:18:30.750Z,100.00
2023-02-09T08:21:03.197Z,100.00
2023-02-09T08:23:32.994Z,100.00
2023-02-09T08:26:02.852Z,100.00
2023-02-09T08:28:42.899Z,100.00
2023-02-09T08:31:15.308Z,100.00
2023-02-09T08:33:42.890Z,100.00
2023-02-09T08:36:11.243Z,100.00
2023-02-09T08:38:38.060Z,100.00
2023-02-09T08:41:09.432Z,100.00
2023-02-09T08:43:36.385Z,100.00
2023-02-09T08:46:04.107Z,100.00
2023-02-09T08:48:35.670Z,100.00
2023-02-09T08:51:02.630Z,100.00
2023-02-09T08:53:29.378Z,100.00
2023-02-09T08:55:55.982Z,100.00
2023-02-09T08:58:22.459Z,100.00
2023-02-09T09:00:48.918Z,100.00
2023-02-09T09:03:16.570Z,100.00
2023-02-09T09:05:43.022Z,100.00
2023-02-09T09:08:12.097Z,100.00
2023-02-09T09:10:38.515Z,100.00
2023-02-09T09:13:04.965Z,100.00
2023-02-09T09:15:31.551Z,100.00
2023-02-09T09:17:57.968Z,100.00
2023-02-09T09:20:24.405Z,100.00
2023-02-09T09:25:18.564Z,100.00
2023-02-09T09:27:45.145Z,100.00
2023-02-09T09:30:12.490Z,100.00
2023-02-09T09:32:38.978Z,100.00
2023-02-09T09:35:05.910Z,100.00
2023-02-09T09:37:32.887Z,100.00
2023-02-09T09:40:00.242Z,100.00
2023-02-09T09:42:42.726Z,100.00
2023-02-09T09:45:16.232Z,100.00
2023-02-09T09:47:44.751Z,100.00
2023-02-09T09:50:19.052Z,100.00
2023-02-09T09:52:52.500Z,100.00
2023-02-09T09:55:30.579Z,100.00
2023-02-09T09:58:01.147Z,100.00
2023-02-09T10:00:33.157Z,100.00
2023-02-09T10:02:59.558Z,100.00
2023-02-09T10:05:35.305Z,100.00
2023-02-09T10:08:10.586Z,100.00
2023-02-09T10:11:05.070Z,100.00
2023-02-09T10:13:44.494Z,100.00
2023-02-09T10:16:34.431Z,100.00
2023-02-09T10:19:04.502Z,100.00
2023-02-09T10:21:34.341Z,100.00
2023-02-09T10:24:00.676Z,100.00
2023-02-09T10:26:37.867Z,100.00
2023-02-09T10:29:25.431Z,100.00
2023-02-09T10:32:23.571Z,100.00
2023-02-09T10:34:56.792Z,100.00
2023-02-09T10:37:32.963Z,100.00
2023-02-09T10:40:13.587Z,100.00
2023-02-09T10:42:49.323Z,100.00
2023-02-09T10:45:34.010Z,100.00
2023-02-09T10:48:08.409Z,100.00
2023-02-09T10:50:56.557Z,100.00
2023-02-09T10:53:33.005Z,100.00
2023-02-09T10:56:02.102Z,99.47
2023-02-09T10:58:35.105Z,100.00
2023-02-09T11:01:10.462Z,100.00
2023-02-09T11:03:56.167Z,100.00
2023-02-09T11:06:23.161Z,100.00
2023-02-09T11:08:59.799Z,99.71
2023-02-09T11:11:32.919Z,100.00
2023-02-09T11:14:00.300Z,99.28
2023-02-09T11:17:06.575Z,100.00
2023-02-09T11:19:54.896Z,100.00
2023-02-09T11:22:46.359Z,100.00
2023-02-09T11:25:25.028Z,99.29
2023-02-09T11:28:22.421Z,100.00
2023-02-09T11:31:14.193Z,100.00
2023-02-09T11:34:11.573Z,100.00
2023-02-09T11:37:00.452Z,100.00
2023-02-09T11:39:41.265Z,100.00
2023-02-09T11:42:53.109Z,100.00
2023-02-09T11:45:38.865Z,99.82
2023-02-09T11:48:19.790Z,99.22
2023-02-09T11:50:53.833Z,100.00
2023-02-09T11:53:23.541Z,97.68
2023-02-09T11:55:57.266Z,99.79
2023-02-09T11:58:45.600Z,100.00
2023-02-09T12:01:23.993Z,99.17
2023-02-09T12:04:00.156Z,94.94
2023-02-09T12:06:30.641Z,94.97
2023-02-09T12:09:21.184Z,97.18
2023-02-09T12:12:02.150Z,100.00
2023-02-09T12:14:45.726Z,100.00
2023-02-09T12:17:18.841Z,100.00
2023-02-09T12:19:56.033Z,100.00
2023-02-09T12:22:34.848Z,100.00
2023-02-09T12:25:53.881Z,100.00
2023-02-09T12:28:35.374Z,100.00
2023-02-09T12:31:05.968Z,100.00
2023-02-09T12:33:36.530Z,100.00
2023-02-09T12:36:10.741Z,95.87
2023-02-09T12:39:03.991Z,93.70
2023-02-09T12:41:45.475Z,90.51
2023-02-09T12:44:11.861Z,98.08
2023-02-09T12:46:44.251Z,94.15
2023-02-09T12:49:13.798Z,96.62
2023-02-09T12:51:43.414Z,96.73
2023-02-09T12:54:29.054Z,94.84
2023-02-09T12:56:56.356Z,93.61
2023-02-09T12:59:24.987Z,96.42
2023-02-09T13:02:07.187Z,94.91
2023-02-09T13:04:39.002Z,93.78
2023-02-09T13:07:15.450Z,93.22
2023-02-09T13:09:43.148Z,98.03
2023-02-09T13:12:15.774Z,91.42
2023-02-09T13:14:44.372Z,94.47
2023-02-09T13:17:32.382Z,90.71
2023-02-09T13:20:30.002Z,94.19
2023-02-09T13:23:28.049Z,96.72
2023-02-09T13:26:19.679Z,97.18
2023-02-09T13:28:46.520Z,98.80
2023-02-09T13:31:23.202Z,99.15
2023-02-09T13:33:55.880Z,100.00
2023-02-09T13:36:45.724Z,97.95
2023-02-09T13:39:23.976Z,98.66
2023-02-09T13:41:53.647Z,97.24
2023-02-09T13:44:22.993Z,100.00
2023-02-09T13:47:01.846Z,100.00
2023-02-09T13:49:30.195Z,100.00
2023-02-09T13:52:16.384Z,100.00
2023-02-09T13:54:43.797Z,100.00
2023-02-09T13:57:23.643Z,100.00
2023-02-09T13:59:50.617Z,100.00
2023-02-09T14:02:24.496Z,100.00
2023-02-09T14:04:56.709Z,100.00
2023-02-09T14:07:28.245Z,100.00
2023-02-09T14:10:11.341Z,100.00
2023-02-09T14:12:52.783Z,100.00
2023-02-09T14:15:42.826Z,100.00
2023-02-09T14:18:49.183Z,100.00
2023-02-09T14:21:17.541Z,100.00
2023-02-09T14:23:55.804Z,100.00
2023-02-09T14:26:27.989Z,100.00
2023-02-09T14:29:33.100Z,100.00
2023-02-09T14:32:31.911Z,100.00
2023-02-09T14:35:00.685Z,100.00
2023-02-09T14:37:30.281Z,100.00
2023-02-09T14:40:18.794Z,100.00
2023-02-09T14:43:06.834Z,100.00
2023-02-09T14:45:48.976Z,100.00
2023-02-09T14:48:19.741Z,100.00
2023-02-09T14:50:48.597Z,100.00
2023-02-09T14:53:16.580Z,100.00
2023-02-09T14:55:45.063Z,100.00
2023-02-09T14:58:29.333Z,100.00
2023-02-09T15:00:58.374Z,100.00
2023-02-09T15:03:25.091Z,100.00
2023-02-09T15:05:57.298Z,100.00
2023-02-09T15:08:25.814Z,100.00
2023-02-09T15:10:56.656Z,100.00
2023-02-09T15:13:23.999Z,100.00
2023-02-09T15:15:50.544Z,100.00
2023-02-09T15:18:22.380Z,100.00
2023-02-09T15:20:50.245Z,100.00
2023-02-09T15:23:17.525Z,100.00
2023-02-09T15:25:44.879Z,100.00
2023-02-09T15:28:31.240Z,100.00
2023-02-09T15:30:59.151Z,100.00
2023-02-09T15:33:27.495Z,100.00
2023-02-09T15:35:54.204Z,100.00
2023-02-09T15:38:20.839Z,100.00
2023-02-09T15:41:08.302Z,100.00
2023-02-09T15:43:54.212Z,100.00
2023-02-09T15:46:39.724Z,100.00
2023-02-09T15:49:07.355Z,100.00
2023-02-09T15:51:36.766Z,100.00
2023-02-09T15:54:09.207Z,100.00
2023-02-09T15:56:39.944Z,100.00
2023-02-09T15:59:06.708Z,100.00
2023-02-09T16:01:34.486Z,100.00
2023-02-09T16:04:13.573Z,100.00
2023-02-09T16:06:48.450Z,100.00
2023-02-09T16:09:21.888Z,100.00
2023-02-09T16:11:48.556Z,100.00
2023-02-09T16:14:20.279Z,100.00
2023-02-09T16:16:48.275Z,100.00
2023-02-09T16:19:15.593Z,100.00
2023-02-09T16:21:44.946Z,100.00
2023-02-09T16:24:23.072Z,100.00
2023-02-09T16:26:49.552Z,100.00
2023-02-09T16:29:16.171Z,100.00
2023-02-09T16:31:42.651Z,100.00
2023-02-09T16:34:15.153Z,100.00
2023-02-09T16:36:42.379Z,100.00
2023-02-09T16:39:27.208Z,100.00
2023-02-09T16:41:53.703Z,100.00
2023-02-09T16:44:23.427Z,100.00
2023-02-09T16:46:53.779Z,100.00
2023-02-09T16:49:31.918Z,100.00
2023-02-09T16:52:02.806Z,100.00
2023-02-09T16:54:33.037Z,100.00
2023-02-09T16:56:59.598Z,100.00
2023-02-09T16:59:26.265Z,100.00
2023-02-09T17:01:52.766Z,100.00
2023-02-09T17:04:19.362Z,100.00
2023-02-09T17:06:50.558Z,100.00
2023-02-09T17:09:17.152Z,100.00
2023-02-09T17:11:43.640Z,100.00
2023-02-09T17:14:11.203Z,100.00
2023-02-09T17:16:41.718Z,100.00
2023-02-09T17:19:16.004Z,100.00
2023-02-09T17:21:42.551Z,100.00
2023-02-09T17:24:14.897Z,100.00
2023-02-09T17:26:41.993Z,100.00
2023-02-09T17:29:09.293Z,100.00
2023-02-09T17:31:51.862Z,100.00
2023-02-09T17:34:20.634Z,100.00
2023-02-09T17:36:47.297Z,100.00
2023-02-09T17:39:14.034Z,100.00
2023-02-09T17:41:46.453Z,100.00
2023-02-09T17:44:39.124Z,100.00
2023-02-09T17:47:14.306Z,100.00
2023-02-09T17:49:41.472Z,100.00
2023-02-09T17:52:15.308Z,100.00
2023-02-09T17:54:41.723Z,100.00
2023-02-09T17:57:12.556Z,100.00
2023-02-09T17:59:39.009Z,100.00
2023-02-09T18:02:14.019Z,100.00
2023-02-09T18:04:42.685Z,100.00
2023-02-09T18:07:10.102Z,100.00
2023-02-09T18:09:36.625Z,100.00
2023-02-09T18:12:10.041Z,100.00
2023-02-09T18:14:36.673Z,100.00
2023-02-09T18:17:04.058Z,100.00
2023-02-09T18:19:31.012Z,100.00
2023-02-09T18:22:00.386Z,100.00
2023-02-09T18:24:29.790Z,100.00
2023-02-09T18:26:56.369Z,100.00
2023-02-09T18:29:26.148Z,100.00
2023-02-09T18:31:52.932Z,100.00
2023-02-09T18:34:19.460Z,100.00
2023-02-09T18:36:45.904Z,100.00
2023-02-09T18:39:15.169Z,100.00
2023-02-09T18:41:41.886Z,100.00
2023-02-09T18:44:08.396Z,100.00
2023-02-09T18:46:34.952Z,100.00
2023-02-09T18:49:03.539Z,100.00
2023-02-09T18:51:31.411Z,100.00
2023-02-09T18:53:58.044Z,100.00
2023-02-09T18:56:26.881Z,100.00
2023-02-09T18:58:53.868Z,100.00
2023-02-09T19:01:22.282Z,100.00
2023-02-09T19:03:53.238Z,100.00
2023-02-09T19:06:21.044Z,100.00
2023-02-09T19:08:50.263Z,100.00
2023-02-09T19:11:19.443Z,100.00
2023-02-09T19:14:05.345Z,100.00
2023-02-09T19:16:31.821Z,100.00
2023-02-09T19:18:59.139Z,100.00
2023-02-09T19:21:25.589Z,100.00
2023-02-09T19:23:53.949Z,100.00
2023-02-09T19:26:20.586Z,100.00
2023-02-09T19:28:48.250Z,100.00
2023-02-09T19:31:17.570Z,100.00
2023-02-09T19:33:44.417Z,100.00
2023-02-09T19:36:10.896Z,100.00
2023-02-09T19:38:37.344Z,100.00
2023-02-09T19:41:12.253Z,100.00
2023-02-09T19:43:39.979Z,100.00
2023-02-09T19:46:07.270Z,100.00
2023-02-09T19:48:33.777Z,100.00
2023-02-09T19:51:00.284Z,100.00
2023-02-09T19:53:27.649Z,100.00
2023-02-09T19:55:55.420Z,100.00
2023-02-09T19:58:22.359Z,100.00
2023-02-09T20:00:50.790Z,100.00
2023-02-09T20:03:18.963Z,100.00
2023-02-09T20:05:45.939Z,100.00
2023-02-09T20:08:16.396Z,100.00
2023-02-09T20:10:44.259Z,100.00
2023-02-09T20:13:14.050Z,100.00
2023-02-09T20:15:42.294Z,100.00
2023-02-09T20:18:09.066Z,100.00
2023-02-09T20:20:35.795Z,100.00
2023-02-09T20:23:06.148Z,100.00
2023-02-09T20:25:32.675Z,100.00
2023-02-09T20:27:59.254Z,100.00
2023-02-09T20:30:25.755Z,100.00
2023-02-09T20:32:52.194Z,100.00
2023-02-09T20:35:19.730Z,100.00
2023-02-09T20:37:46.188Z,100.00
2023-02-09T20:40:12.990Z,100.00
2023-02-09T20:42:58.665Z,100.00
2023-02-09T20:45:43.649Z,100.00
2023-02-09T20:48:10.085Z,100.00
2023-02-09T20:50:36.555Z,100.00
2023-02-09T20:53:03.066Z,100.00
2023-02-09T20:55:30.259Z,100.00
2023-02-09T20:57:57.297Z,100.00
2023-02-09T21:00:23.796Z,100.00
2023-02-09T21:02:50.357Z,100.00
2023-02-09T21:05:17.098Z,100.00
2023-02-09T21:07:44.024Z,100.00
2023-02-09T21:10:12.955Z,100.00
2023-02-09T21:12:39.638Z,100.00
2023-02-09T21:15:06.609Z,100.00
2023-02-09T21:17:33.161Z,100.00
2023-02-09T21:20:00.043Z,100.00
2023-02-09T21:22:26.710Z,100.00
2023-02-09T21:24:53.122Z,100.00
2023-02-09T21:27:20.446Z,100.00
2023-02-09T21:29:47.000Z,100.00
2023-02-09T21:32:15.364Z,100.00
2023-02-09T21:34:42.795Z,100.00
2023-02-09T21:37:13.016Z,100.00
2023-02-09T21:39:40.381Z,100.00
2023-02-09T21:42:25.971Z,100.00
2023-02-09T21:44:54.483Z,100.00
2023-02-09T21:47:28.731Z,100.00
2023-02-09T21:49:55.671Z,100.00
2023-02-09T21:52:22.401Z,100.00
2023-02-09T21:54:49.258Z,100.00
2023-02-09T21:57:15.776Z,100.00
2023-02-09T21:59:42.245Z,100.00
2023-02-09T22:02:13.967Z,100.00
2023-02-09T22:04:40.777Z,100.00
2023-02-09T22:07:07.284Z,100.00
2023-02-09T22:09:33.700Z,100.00
2023-02-09T22:12:00.895Z,100.00
2023-02-09T22:14:28.713Z,100.00
2023-02-09T22:16:55.411Z,100.00
2023-02-09T22:19:23.567Z,100.00
2023-02-09T22:21:50.359Z,100.00
2023-02-09T22:24:17.862Z,100.00
2023-02-09T22:26:45.039Z,100.00
2023-02-09T22:29:13.433Z,100.00
2023-02-09T22:31:40.500Z,100.00
2023-02-09T22:34:07.638Z,100.00
2023-02-09T22:36:35.174Z,100.00
2023-02-09T22:39:02.791Z,100.00
2023-02-09T22:41:29.865Z,100.00
2023-02-09T22:44:01.867Z,100.00
2023-02-09T22:46:36.635Z,100.00
2023-02-09T22:49:06.207Z,100.00
2023-02-09T22:51:34.508Z,100.00
2023-02-09T22:54:01.830Z,100.00
2023-02-09T22:56:30.729Z,100.00
2023-02-09T22:58:58.981Z,100.00
2023-02-09T23:01:26.629Z,100.00
2023-02-09T23:03:54.001Z,100.00
2023-02-09T23:06:27.095Z,100.00
2023-02-09T23:08:55.783Z,100.00
2023-02-09T23:11:22.715Z,100.00
2023-02-09T23:13:51.076Z,100.00
2023-02-09T23:16:25.103Z,100.00
2023-02-09T23:18:56.411Z,100.00
2023-02-09T23:21:25.818Z,100.00
2023-02-09T23:23:53.234Z,100.00
2023-02-09T23:26:20.758Z,100.00
2023-02-09T23:28:47.510Z,100.00
2023-02-09T23:31:16.713Z,100.00
2023-02-09T23:33:43.397Z,100.00
2023-02-09T23:36:13.838Z,100.00
2023-02-09T23:38:41.840Z,100.00
2023-02-09T23:41:11.094Z,100.00
2023-02-09T23:43:38.953Z,100.00
2023-02-09T23:46:08.453Z,100.00
2023-02-09T23:48:35.282Z,100.00
2023-02-09T23:51:04.138Z,100.00
2023-02-09T23:53:31.589Z,100.00
2023-02-09T23:56:03.790Z,100.00
2023-02-09T23:58:36.864Z,100.00
